首页
METAR-TAF:

METAR-TAF

机场 :

McChord Air Force Base

塔科马, 华盛顿, 美国

纬度: 47-09N, 经度: 122-29W, 海拔: 98米

当前天气观测

该预报发布于51分钟前的23:58 UTC
风速3节,风向东南
温度 7°C
湿度 100%
气压 1024 hPa
能見度: 16.1公里
少量云层高于5000英尺

METAR: KTCM 102358Z AUTO 14003KT 10SM FEW050 07/07 A3025 RMK AO2 SLP249 60000 T00730073 10094 20070 55003 $

时间: 16:49 (00:49 UTC)

预报

该预报发布于3小时和49分钟前的21:00 UTC
预报有效从10日的 21点(UTC)到 12日的 03点(UTC)
风速6节,风向
能见度10公里或以上
多云层高于2000英尺
成为
从 11日的 11点(UTC)到 11日的 12点(UTC)
风速15节,风向,有时为20节阵风
能見度: 9000
多云层高于4000英尺
小雨
成为
从 11日的 20点(UTC)到 11日的 21点(UTC)
风速20节,风向,有时为25节阵风
能見度: 6000
阴天层高于500英尺
小雨
成为
从 12日的 02点(UTC)到 12日的 03点(UTC)
风速20节,风向西转西南,有时为30节阵风
能見度: 9000
多云层高于2000英尺
小雨

TAF: KTCM 102100Z 1021/1203 19006KT 9999 BKN020 610401 QNH3019INS BECMG 1111/1112 18015G20KT 9000 -RA BKN040 610406 510053 QNH3010INS BECMG 1120/1121 19020G25KT 6000 -RA OVC005 620406 QNH2970INS BECMG 1202/1203 25020G30KT 9000 -RA BKN020 620406 QNH2981INS TX08/1123Z TN06/1111Z

超过4000个机场的气象观测和天气预报(METAR&TAF报告)。

可查询的气象台以黄色和红色小点在地图上表示。

将鼠标移到小点上方,可查看气象台名称。

然后点击查看天气观测和预报。

如需切换地图:点击带黑十字的绿色按钮放大地图;点击带横线的绿色按钮缩小地图;或者点击绿色箭头查看邻近地区的地图。


METAR-TAF: